Time;durP1;ratioP1;P1;durP2;ratioP2;P2;SDS_P1;SDS_P2;PMS_P1;PMS_P2;Temp;Humidity;BMP_temperature;BMP_pressure;BME280_temperature;BME280_humidity;BME280_pressure;Samples;Min_cycle;Max_cycle;Signal;HPM_P1;HPM_P2
2023/08/16 05:48:51;;;;;;;6.87;4.33;;;;;;;;;;10503612;28;20489;-83
2023/08/16 05:53:52;;;;;;;7.45;5.30;;;;;;;;;;10488431;28;20343;-84
2023/08/16 05:59:18;;;;;;;5.90;5.05;;;;;;;;;;10479389;23;20069;-87
2023/08/16 06:16:36;;;;;;;6.15;3.70;;;;;;;;;;10453243;28;20025;-87
2023/08/16 06:56:23;;;;;;;3.88;3.33;;;;;;;;;;10201372;29;20048;-87
2023/08/16 07:02:21;;;;;;;2.40;2.05;;;;;;;;;;10099873;29;20117;-87
2023/08/16 07:13:11;;;;;;;2.72;2.20;;;;;;;;;;10104460;29;20068;-86
2023/08/16 07:18:12;;;;;;;6.20;2.03;;;;;;;;;;10096279;29;20059;-85
2023/08/16 07:23:13;;;;;;;4.50;2.20;;;;;;;;;;10359077;28;20061;-84
2023/08/16 07:28:14;;;;;;;2.80;1.80;;;;;;;;;;10387654;28;20121;-84
2023/08/16 07:33:15;;;;;;;6.18;2.45;;;;;;;;;;10350244;28;20046;-84
2023/08/16 07:38:16;;;;;;;3.67;2.38;;;;;;;;;;10344955;28;20035;-84
2023/08/16 07:43:17;;;;;;;3.05;1.85;;;;;;;;;;10345227;28;20053;-83
2023/08/16 07:48:19;;;;;;;3.75;2.30;;;;;;;;;;10356150;28;20052;-84
2023/08/16 07:53:22;;;;;;;2.55;1.77;;;;;;;;;;10350101;28;20032;-84
2023/08/16 07:58:23;;;;;;;3.95;1.80;;;;;;;;;;10351518;28;20061;-84
2023/08/16 08:03:25;;;;;;;3.33;1.80;;;;;;;;;;10351461;28;20026;-84
2023/08/16 08:08:26;;;;;;;2.92;1.90;;;;;;;;;;10352759;28;20030;-84
2023/08/16 08:13:27;;;;;;;4.90;2.00;;;;;;;;;;10363901;28;20026;-84
2023/08/16 08:18:29;;;;;;;5.38;2.10;;;;;;;;;;10362845;28;20054;-84
2023/08/16 08:23:30;;;;;;;6.20;3.00;;;;;;;;;;10354472;28;20034;-84
2023/08/16 08:28:33;;;;;;;5.55;2.00;;;;;;;;;;10352011;28;20061;-84
2023/08/16 08:33:34;;;;;;;3.28;2.45;;;;;;;;;;10343596;28;20427;-84
2023/08/16 08:38:35;;;;;;;4.22;2.00;;;;;;;;;;10342240;28;20022;-84
2023/08/16 08:43:37;;;;;;;2.38;1.70;;;;;;;;;;10345218;28;20034;-83
2023/08/16 08:48:38;;;;;;;2.58;1.80;;;;;;;;;;10376057;28;20484;-84
2023/08/16 08:53:39;;;;;;;2.60;1.80;;;;;;;;;;10360537;28;20206;-84
2023/08/16 08:58:41;;;;;;;4.15;2.03;;;;;;;;;;10341547;28;20180;-84
2023/08/16 09:03:45;;;;;;;2.97;2.10;;;;;;;;;;10348650;28;20038;-84
2023/08/16 09:08:46;;;;;;;3.95;2.05;;;;;;;;;;10344905;28;20098;-84
2023/08/16 09:13:48;;;;;;;3.35;1.88;;;;;;;;;;10342884;28;20118;-83
2023/08/16 09:18:49;;;;;;;4.93;3.13;;;;;;;;;;10344482;28;20164;-84
2023/08/16 09:24:00;;;;;;;4.18;1.77;;;;;;;;;;10344490;28;20035;-84
2023/08/16 09:29:04;;;;;;;3.55;1.92;;;;;;;;;;10346842;28;20113;-83
2023/08/16 09:34:09;;;;;;;4.47;2.50;;;;;;;;;;10345379;28;20098;-84
2023/08/16 09:39:10;;;;;;;3.72;2.30;;;;;;;;;;10344584;28;20153;-84
2023/08/16 09:44:11;;;;;;;4.75;2.50;;;;;;;;;;10353103;28;20368;-83
2023/08/16 09:49:12;;;;;;;5.43;3.75;;;;;;;;;;10345005;28;20098;-84
2023/08/16 09:54:14;;;;;;;4.13;2.42;;;;;;;;;;10344163;28;20457;-83
2023/08/16 09:59:15;;;;;;;6.97;4.32;;;;;;;;;;10343647;28;20022;-83
2023/08/16 10:04:17;;;;;;;5.22;2.38;;;;;;;;;;10343542;28;20366;-82
2023/08/16 10:09:18;;;;;;;5.15;2.53;;;;;;;;;;10342244;28;20105;-83
2023/08/16 10:14:19;;;;;;;4.53;3.05;;;;;;;;;;10342445;28;20034;-82
2023/08/16 10:19:23;;;;;;;5.47;3.38;;;;;;;;;;10349905;28;20034;-81
2023/08/16 10:24:24;;;;;;;7.13;4.75;;;;;;;;;;10344674;28;20532;-82
2023/08/16 10:29:26;;;;;;;8.48;3.83;;;;;;;;;;10344023;28;20042;-82
2023/08/16 10:34:28;;;;;;;4.95;3.78;;;;;;;;;;10348644;28;20507;-82
2023/08/16 10:39:30;;;;;;;5.82;3.88;;;;;;;;;;10348334;28;20493;-84
2023/08/16 10:44:31;;;;;;;6.75;4.35;;;;;;;;;;10349680;28;20030;-85
2023/08/16 10:49:42;;;;;;;7.53;4.60;;;;;;;;;;10349014;28;20176;-85
2023/08/16 10:54:43;;;;;;;5.95;3.58;;;;;;;;;;10344910;28;20288;-86
2023/08/16 10:59:45;;;;;;;8.20;3.97;;;;;;;;;;10343380;28;20489;-84
2023/08/16 11:04:52;;;;;;;6.47;4.13;;;;;;;;;;10351982;28;20037;-84
2023/08/16 11:10:29;;;;;;;6.13;4.18;;;;;;;;;;10359015;28;20030;-85
2023/08/16 11:15:32;;;;;;;6.47;4.28;;;;;;;;;;10397447;28;20044;-85
2023/08/16 11:20:41;;;;;;;5.10;3.80;;;;;;;;;;10412759;28;20041;-84
2023/08/16 11:25:43;;;;;;;6.88;3.65;;;;;;;;;;10409049;28;20057;-84
2023/08/16 11:30:45;;;;;;;5.18;2.80;;;;;;;;;;10339501;28;20038;-83
2023/08/16 11:35:46;;;;;;;6.97;3.03;;;;;;;;;;10348729;28;20029;-83
2023/08/16 11:40:47;;;;;;;3.95;2.92;;;;;;;;;;10348725;28;20061;-82
2023/08/16 11:45:52;;;;;;;6.38;3.25;;;;;;;;;;10349398;28;20027;-84
2023/08/16 11:50:54;;;;;;;7.03;2.58;;;;;;;;;;10351020;28;20094;-83
2023/08/16 11:56:06;;;;;;;3.85;2.65;;;;;;;;;;10348567;28;20026;-83
2023/08/16 18:02:29;;;;;;;5.90;2.72;;;;;;;;;;10200000;23;20147;-86
2023/08/16 18:07:30;;;;;;;3.85;2.40;;;;;;;;;;10166106;29;20128;-85
2023/08/16 18:12:32;;;;;;;5.45;3.00;;;;;;;;;;10166119;29;20052;-86
2023/08/16 18:17:55;;;;;;;3.60;2.30;;;;;;;;;;10149097;29;20048;-87
2023/08/16 18:23:03;;;;;;;7.20;3.72;;;;;;;;;;10167044;29;20486;-86
2023/08/16 18:28:23;;;;;;;4.07;3.10;;;;;;;;;;10104523;29;20037;-86
2023/08/16 18:40:06;;;;;;;4.20;2.95;;;;;;;;;;10051756;29;20060;-86
2023/08/16 18:51:03;;;;;;;9.75;4.88;;;;;;;;;;10080207;29;20473;-87
2023/08/16 18:56:05;;;;;;;4.25;3.03;;;;;;;;;;10088948;29;20164;-86
2023/08/16 19:01:06;;;;;;;5.35;3.17;;;;;;;;;;10175373;29;20048;-86
2023/08/16 19:06:07;;;;;;;3.47;2.35;;;;;;;;;;10174931;29;20036;-86
2023/08/16 19:11:08;;;;;;;4.47;2.70;;;;;;;;;;10172693;29;20040;-85
